createdAt,value
2018-07-04T00:00:13.445Z,77.67
2018-07-04T00:01:13.451Z,77.76
2018-07-04T00:02:13.471Z,76.84
2018-07-04T00:03:13.493Z,76.62
2018-07-04T00:04:13.513Z,75.98
2018-07-04T00:05:13.543Z,75.54
2018-07-04T00:06:13.546Z,74.30
2018-07-04T00:07:13.579Z,74.58
2018-07-04T00:08:13.588Z,74.11
2018-07-04T00:09:13.612Z,72.99
2018-07-04T00:10:13.635Z,74.20
2018-07-04T00:11:13.651Z,75.26
2018-07-04T00:12:13.666Z,74.05
2018-07-04T00:13:13.688Z,73.86
2018-07-04T00:14:13.709Z,74.15
2018-07-04T00:15:13.768Z,75.16
2018-07-04T00:16:13.751Z,75.54
2018-07-04T00:17:13.769Z,75.89
2018-07-04T00:18:13.792Z,76.18
2018-07-04T00:19:13.817Z,76.37
2018-07-04T00:20:13.825Z,76.71
2018-07-04T00:21:13.841Z,76.81
2018-07-04T00:22:13.866Z,76.42
2018-07-04T00:23:13.889Z,77.76
2018-07-04T00:24:13.899Z,77.28
2018-07-04T00:25:13.925Z,76.14
2018-07-04T00:26:13.947Z,77.38
2018-07-04T00:27:13.961Z,76.56
2018-07-04T00:28:13.992Z,75.89
2018-07-04T00:29:14.006Z,76.71
2018-07-04T00:30:14.035Z,77.19
2018-07-04T00:31:14.046Z,76.04
2018-07-04T00:32:14.069Z,76.65
2018-07-04T00:33:14.086Z,77.19
2018-07-04T00:34:14.104Z,77.57
2018-07-04T00:35:14.121Z,77.48
2018-07-04T00:36:14.137Z,77.76
2018-07-04T00:37:14.155Z,77.19
2018-07-04T00:38:14.184Z,77.57
2018-07-04T00:39:14.200Z,77.48
2018-07-04T00:40:14.220Z,78.24
2018-07-04T00:41:14.240Z,79.73
2018-07-04T00:42:14.268Z,79.93
2018-07-04T00:43:14.274Z,80.11
2018-07-04T00:44:14.293Z,80.40
2018-07-04T00:45:14.318Z,80.11
2018-07-04T00:46:14.328Z,80.30
2018-07-04T00:47:14.356Z,80.69
2018-07-04T00:48:14.374Z,79.35
2018-07-04T00:49:14.392Z,79.44
2018-07-04T00:50:14.416Z,78.53
2018-07-04T00:51:14.433Z,77.76
2018-07-04T00:52:14.448Z,77.95
2018-07-04T00:53:14.469Z,78.34
2018-07-04T00:54:14.507Z,78.53
2018-07-04T00:55:14.506Z,79.20
2018-07-04T00:56:14.529Z,78.63
2018-07-04T00:57:14.549Z,79.25
2018-07-04T00:58:14.575Z,79.35
2018-07-04T00:59:14.587Z,79.73
2018-07-04T01:00:14.603Z,80.11
2018-07-04T01:01:14.630Z,80.02
2018-07-04T01:02:14.641Z,79.49
2018-07-04T01:03:14.667Z,79.44
2018-07-04T01:04:14.694Z,79.83
2018-07-04T01:05:14.707Z,80.30
2018-07-04T01:06:14.723Z,79.49
2018-07-04T01:07:14.754Z,79.25
2018-07-04T01:08:14.766Z,78.72
2018-07-04T01:09:14.787Z,79.39
2018-07-04T01:10:14.796Z,80.30
2018-07-04T01:11:14.829Z,80.40
2018-07-04T01:12:14.841Z,79.83
2018-07-04T01:13:14.853Z,79.64
2018-07-04T01:14:14.875Z,80.30
2018-07-04T01:15:14.909Z,80.30
2018-07-04T01:16:14.915Z,80.98
2018-07-04T01:17:14.938Z,80.21
2018-07-04T01:18:14.961Z,81.07
2018-07-04T01:19:14.973Z,82.37
2018-07-04T01:20:14.992Z,83.13
2018-07-04T01:21:15.025Z,83.00
2018-07-04T01:22:15.029Z,83.33
2018-07-04T01:23:15.072Z,82.94
2018-07-04T01:24:15.078Z,82.84
2018-07-04T01:25:15.086Z,82.37
2018-07-04T01:26:15.120Z,82.28
2018-07-04T01:27:15.125Z,81.99
2018-07-04T01:28:15.147Z,80.88
2018-07-04T01:29:15.167Z,81.16
2018-07-04T01:30:15.182Z,81.32
2018-07-04T01:31:15.202Z,82.18
2018-07-04T01:32:15.226Z,82.56
2018-07-04T01:33:15.250Z,82.56
2018-07-04T01:34:15.267Z,81.99
2018-07-04T01:35:15.285Z,82.37
2018-07-04T01:36:15.296Z,80.84
2018-07-04T01:37:15.315Z,81.51
2018-07-04T01:38:15.334Z,82.18
2018-07-04T01:39:15.366Z,81.89
2018-07-04T01:40:15.372Z,81.51
2018-07-04T01:41:15.395Z,81.60
2018-07-04T01:42:15.418Z,81.51
2018-07-04T01:43:15.443Z,81.99
2018-07-04T01:44:15.459Z,82.08
2018-07-04T01:45:15.473Z,81.99
2018-07-04T01:46:15.500Z,82.08
2018-07-04T01:47:15.517Z,81.99
2018-07-04T01:48:15.526Z,82.56
2018-07-04T01:49:15.558Z,82.08
2018-07-04T01:50:15.560Z,81.41
2018-07-04T01:51:15.593Z,81.41
2018-07-04T01:52:15.607Z,81.99
2018-07-04T01:53:15.623Z,81.89
2018-07-04T01:54:15.641Z,81.74
2018-07-04T01:55:15.667Z,81.45
2018-07-04T01:56:15.680Z,81.45
2018-07-04T01:57:15.702Z,81.55
2018-07-04T01:58:15.728Z,82.03
2018-07-04T01:59:15.741Z,81.89
2018-07-04T02:00:15.760Z,81.99
2018-07-04T02:01:15.777Z,81.79
2018-07-04T02:02:15.799Z,81.51
2018-07-04T02:03:15.813Z,80.93
2018-07-04T02:04:15.840Z,80.79
2018-07-04T02:05:15.849Z,80.40
2018-07-04T02:06:15.875Z,80.30
2018-07-04T02:07:15.905Z,80.69
2018-07-04T02:08:15.911Z,80.79
2018-07-04T02:09:15.931Z,81.70
2018-07-04T02:10:15.954Z,81.99
2018-07-04T02:11:15.970Z,82.28
2018-07-04T02:12:15.987Z,82.08
2018-07-04T02:13:16.029Z,81.70
2018-07-04T02:14:16.037Z,82.61
2018-07-04T02:15:16.054Z,84.05
2018-07-04T02:16:16.066Z,83.76
2018-07-04T02:17:16.082Z,84.05
2018-07-04T02:18:16.109Z,84.43
2018-07-04T02:19:16.154Z,84.81
2018-07-04T02:20:16.143Z,85.29
2018-07-04T02:21:16.168Z,84.81
2018-07-04T02:22:16.179Z,85.00
2018-07-04T02:23:16.197Z,84.33
2018-07-04T02:24:16.216Z,83.95
2018-07-04T02:25:16.234Z,83.80
2018-07-04T02:26:16.264Z,83.42
2018-07-04T02:27:16.280Z,83.13
2018-07-04T02:28:16.304Z,82.94
2018-07-04T02:29:16.313Z,82.84
2018-07-04T02:30:16.351Z,83.95
2018-07-04T02:31:16.358Z,84.62
2018-07-04T02:32:16.380Z,85.58
2018-07-04T02:33:16.387Z,84.67
2018-07-04T02:34:16.412Z,84.52
2018-07-04T02:35:16.425Z,84.33
2018-07-04T02:36:16.450Z,83.95
2018-07-04T02:37:16.462Z,83.76
2018-07-04T02:38:16.494Z,85.48
2018-07-04T02:39:16.502Z,86.10
2018-07-04T02:40:16.522Z,86.39
2018-07-04T02:41:16.545Z,85.05
2018-07-04T02:42:16.562Z,86.20
2018-07-04T02:43:16.586Z,86.20
2018-07-04T02:44:16.605Z,85.91
2018-07-04T02:45:16.625Z,85.72
2018-07-04T02:46:16.637Z,84.48
2018-07-04T02:47:16.657Z,83.76
2018-07-04T02:48:16.674Z,83.09
2018-07-04T02:49:16.696Z,82.81
2018-07-04T02:50:16.713Z,82.32
2018-07-04T02:51:16.733Z,82.08
2018-07-04T02:52:16.749Z,81.95
2018-07-04T02:53:16.769Z,83.28
2018-07-04T02:54:16.803Z,83.67
2018-07-04T02:55:16.808Z,84.05
2018-07-04T02:56:16.831Z,84.05
2018-07-04T02:57:16.856Z,84.52
2018-07-04T02:58:16.860Z,84.14
2018-07-04T02:59:16.876Z,84.14
2018-07-04T03:00:16.907Z,84.14
2018-07-04T03:01:16.930Z,82.90
2018-07-04T03:02:16.940Z,83.04
2018-07-04T03:03:16.955Z,82.18
2018-07-04T03:04:16.977Z,82.37
2018-07-04T03:05:16.995Z,82.56
2018-07-04T03:06:17.022Z,82.18
2018-07-04T03:07:17.036Z,83.18
2018-07-04T03:08:17.058Z,84.33
2018-07-04T03:09:17.073Z,83.95
2018-07-04T03:10:17.097Z,84.33
2018-07-04T03:11:17.119Z,84.52
2018-07-04T03:12:17.138Z,84.72
2018-07-04T03:13:17.149Z,84.14
2018-07-04T03:14:17.171Z,83.76
2018-07-04T03:15:17.201Z,84.33
2018-07-04T03:16:17.201Z,84.43
2018-07-04T03:17:17.228Z,84.23
2018-07-04T03:18:17.244Z,83.95
2018-07-04T03:19:17.321Z,84.33
2018-07-04T03:20:17.289Z,84.81
2018-07-04T03:21:17.305Z,84.86
2018-07-04T03:22:17.323Z,84.48
2018-07-04T03:23:17.332Z,84.67
2018-07-04T03:24:17.355Z,84.48
2018-07-04T03:25:17.377Z,84.05
2018-07-04T03:26:17.395Z,83.76
2018-07-04T03:27:17.410Z,83.86
2018-07-04T03:28:17.454Z,84.14
2018-07-04T03:29:17.455Z,83.76
2018-07-04T03:30:17.482Z,83.18
2018-07-04T03:31:17.501Z,84.05
2018-07-04T03:32:17.508Z,84.96
2018-07-04T03:33:17.526Z,85.34
2018-07-04T03:34:17.546Z,86.39
2018-07-04T03:35:17.576Z,85.25
2018-07-04T03:36:17.582Z,85.19
2018-07-04T03:37:17.612Z,84.77
2018-07-04T03:38:17.620Z,85.53
2018-07-04T03:39:17.639Z,86.20
2018-07-04T03:40:17.657Z,86.58
2018-07-04T03:41:17.683Z,87.25
2018-07-04T03:42:17.696Z,86.20
2018-07-04T03:43:17.721Z,86.77
2018-07-04T03:44:17.734Z,86.15
2018-07-04T03:45:17.754Z,85.15
2018-07-04T03:46:17.778Z,85.58
2018-07-04T03:47:17.792Z,85.19
2018-07-04T03:48:17.815Z,85.15
2018-07-04T03:49:17.833Z,86.10
2018-07-04T03:50:17.866Z,87.15
2018-07-04T03:51:17.881Z,87.06
2018-07-04T03:52:17.891Z,85.91
2018-07-04T03:53:17.914Z,85.29
2018-07-04T03:54:17.925Z,85.29
2018-07-04T03:55:17.940Z,84.52
2018-07-04T03:56:17.965Z,83.95
2018-07-04T03:57:17.986Z,84.33
2018-07-04T03:58:18.001Z,84.52
2018-07-04T03:59:18.020Z,85.10
2018-07-04T04:00:18.044Z,84.91
2018-07-04T04:01:18.062Z,85.10
2018-07-04T04:02:18.088Z,85.19
2018-07-04T04:03:18.105Z,85.19
2018-07-04T04:04:18.115Z,85.38
2018-07-04T04:05:18.132Z,85.10
2018-07-04T04:06:18.152Z,85.19
2018-07-04T04:07:18.192Z,85.00
2018-07-04T04:08:18.197Z,85.29
2018-07-04T04:09:18.209Z,85.48
2018-07-04T04:10:18.227Z,86.15
2018-07-04T04:11:18.260Z,86.34
2018-07-04T04:12:18.265Z,87.01
2018-07-04T04:13:18.309Z,86.82
2018-07-04T04:14:18.309Z,87.39
2018-07-04T04:15:18.320Z,86.43
2018-07-04T04:16:18.347Z,86.15
2018-07-04T04:17:18.367Z,85.42
2018-07-04T04:18:18.377Z,84.95
2018-07-04T04:19:18.408Z,84.19
2018-07-04T04:20:18.425Z,84.09
2018-07-04T04:21:18.448Z,84.28
2018-07-04T04:22:18.453Z,84.47
2018-07-04T04:23:18.501Z,84.85
2018-07-04T04:24:18.511Z,85.33
2018-07-04T04:25:18.514Z,85.14
2018-07-04T04:26:18.538Z,84.66
2018-07-04T04:27:18.554Z,84.76
2018-07-04T04:28:18.583Z,84.56
2018-07-04T04:29:18.597Z,83.94
2018-07-04T04:30:18.614Z,83.75
2018-07-04T04:31:18.640Z,83.94
2018-07-04T04:32:18.650Z,82.93
2018-07-04T04:33:18.688Z,81.21
2018-07-04T04:34:18.695Z,81.59
2018-07-04T04:35:18.726Z,81.78
2018-07-04T04:36:18.754Z,82.03
2018-07-04T04:37:18.753Z,82.45
2018-07-04T04:38:18.764Z,82.93
2018-07-04T04:39:18.789Z,81.88
2018-07-04T04:40:18.801Z,82.35
2018-07-04T04:41:18.837Z,81.21
2018-07-04T04:42:18.903Z,81.54
2018-07-04T04:43:18.872Z,81.25
2018-07-04T04:44:18.887Z,81.25
2018-07-04T04:45:18.899Z,81.34
2018-07-04T04:46:18.923Z,80.62
2018-07-04T04:47:18.946Z,79.57
2018-07-04T04:48:18.958Z,80.62
2018-07-04T04:49:18.979Z,80.52
2018-07-04T04:50:19.002Z,80.04
2018-07-04T04:51:19.027Z,79.57
2018-07-04T04:52:19.044Z,79.95
2018-07-04T04:53:19.060Z,80.62
2018-07-04T04:54:19.090Z,81.20
2018-07-04T04:55:19.102Z,81.10
2018-07-04T04:56:19.122Z,80.71
2018-07-04T04:57:19.138Z,80.37
2018-07-04T04:58:19.164Z,79.70
2018-07-04T04:59:19.191Z,76.90
2018-07-04T05:00:19.219Z,75.35
2018-07-04T05:01:19.226Z,71.67
2018-07-04T05:02:19.244Z,69.24
2018-07-04T05:03:19.271Z,67.29
2018-07-04T05:04:19.312Z,64.43
2018-07-04T05:05:19.310Z,62.54
2018-07-04T05:06:19.336Z,61.48
2018-07-04T05:07:19.359Z,60.74
2018-07-04T05:08:19.385Z,59.80
2018-07-04T05:09:19.417Z,58.35
2018-07-04T05:10:19.425Z,56.28
2018-07-04T05:11:19.457Z,54.61
2018-07-04T05:12:19.473Z,54.73
2018-07-04T05:13:19.511Z,52.89
2018-07-04T05:14:19.533Z,53.57
2018-07-04T05:15:19.550Z,53.87
2018-07-04T05:16:19.587Z,49.39
2018-07-04T05:17:19.608Z,46.96
2018-07-04T05:18:19.630Z,47.60
2018-07-04T05:19:19.653Z,49.02
2018-07-04T05:20:19.684Z,50.43
2018-07-04T05:21:19.733Z,51.18
2018-07-04T05:22:19.756Z,51.95
2018-07-04T05:23:19.768Z,50.98
2018-07-04T05:24:19.791Z,51.13
2018-07-04T05:25:19.822Z,48.35
2018-07-04T05:26:19.855Z,50.33
2018-07-04T05:27:19.882Z,51.64
2018-07-04T05:28:19.910Z,51.59
2018-07-04T05:29:19.940Z,52.05
2018-07-04T05:30:19.954Z,52.51
2018-07-04T05:31:19.982Z,52.92
2018-07-04T05:32:20.004Z,52.03
2018-07-04T05:33:20.034Z,50.16
2018-07-04T05:34:20.063Z,51.56
2018-07-04T05:35:20.095Z,53.19
2018-07-04T05:36:20.128Z,55.07
2018-07-04T05:37:20.144Z,56.10
2018-07-04T05:38:20.177Z,56.58
2018-07-04T05:39:20.206Z,57.23
2018-07-04T05:40:20.237Z,57.62
2018-07-04T05:41:20.267Z,57.26
2018-07-04T05:42:20.290Z,57.64
2018-07-04T05:43:20.310Z,57.04
2018-07-04T05:44:20.401Z,57.68
2018-07-04T05:45:20.365Z,58.32
2018-07-04T05:46:20.398Z,55.90
2018-07-04T05:47:20.416Z,56.65
2018-07-04T05:48:20.457Z,57.16
2018-07-04T05:49:20.471Z,54.85
2018-07-04T05:50:20.505Z,52.80
2018-07-04T05:51:20.520Z,54.97
2018-07-04T05:52:20.554Z,54.53
2018-07-04T05:53:20.585Z,54.22
2018-07-04T05:54:20.610Z,53.99
2018-07-04T05:55:20.627Z,52.82
2018-07-04T05:56:20.749Z,51.23
2018-07-04T05:57:20.688Z,50.29
2018-07-04T05:58:20.706Z,48.25
2018-07-04T05:59:20.740Z,47.52
2018-07-04T06:00:20.761Z,47.40
2018-07-04T06:01:20.786Z,47.69
2018-07-04T06:02:20.813Z,47.57
2018-07-04T06:03:20.854Z,44.99
2018-07-04T06:04:20.875Z,45.51
2018-07-04T06:05:20.907Z,46.58
2018-07-04T06:06:20.943Z,45.61
2018-07-04T06:07:20.969Z,43.88
2018-07-04T06:08:20.982Z,43.40
2018-07-04T06:09:21.028Z,43.78
2018-07-04T06:10:21.047Z,43.26
2018-07-04T06:11:21.088Z,41.32
2018-07-04T06:12:21.116Z,42.46
2018-07-04T06:13:21.131Z,43.05
2018-07-04T06:14:21.162Z,42.82
2018-07-04T06:15:21.191Z,39.98
2018-07-04T06:16:21.282Z,39.94
2018-07-04T06:17:21.267Z,41.63
2018-07-04T06:18:21.287Z,42.53
2018-07-04T06:19:21.308Z,42.60
2018-07-04T06:20:21.335Z,42.99
2018-07-04T06:21:21.369Z,43.36
2018-07-04T06:22:21.409Z,44.87
2018-07-04T06:23:21.439Z,43.71
2018-07-04T06:24:21.464Z,42.02
2018-07-04T06:25:21.490Z,45.12
2018-07-04T06:26:21.528Z,46.92
2018-07-04T06:27:21.550Z,46.96
2018-07-04T06:28:21.576Z,47.50
2018-07-04T06:29:21.608Z,48.57
2018-07-04T06:30:21.633Z,48.57
2018-07-04T06:31:21.662Z,48.20
2018-07-04T06:32:21.778Z,45.55
2018-07-04T06:33:21.729Z,43.96
2018-07-04T06:34:21.753Z,42.60
2018-07-04T06:35:21.790Z,43.54
2018-07-04T06:36:21.808Z,43.36
2018-07-04T06:37:21.842Z,42.39
2018-07-04T06:38:21.861Z,43.63
2018-07-04T06:39:21.888Z,44.68
2018-07-04T06:40:21.922Z,45.24
2018-07-04T06:41:21.951Z,47.13
2018-07-04T06:42:21.986Z,47.79
2018-07-04T06:43:22.011Z,48.47
2018-07-04T06:44:22.035Z,47.45
2018-07-04T06:45:22.096Z,46.86
2018-07-04T06:46:22.100Z,46.89
2018-07-04T06:47:22.120Z,46.69
2018-07-04T06:48:22.155Z,43.52
2018-07-04T06:49:22.207Z,39.90
2018-07-04T06:50:22.212Z,38.38
2018-07-04T06:51:22.247Z,35.91
2018-07-04T06:52:22.267Z,35.04
2018-07-04T06:53:22.284Z,34.28
2018-07-04T06:54:22.350Z,33.43
2018-07-04T06:55:22.373Z,33.51
2018-07-04T06:56:22.426Z,33.26
2018-07-04T06:57:22.396Z,31.51
2018-07-04T06:58:22.447Z,35.28
2018-07-04T06:59:22.458Z,38.96
2018-07-04T07:00:22.487Z,42.49
2018-07-04T07:01:22.512Z,43.40
2018-07-04T07:02:22.553Z,40.60
2018-07-04T07:03:22.588Z,38.22
2018-07-04T07:04:22.605Z,35.73
2018-07-04T07:05:22.634Z,34.90
2018-07-04T07:06:22.662Z,33.33
2018-07-04T07:07:22.692Z,33.04
2018-07-04T07:08:22.766Z,32.54
2018-07-04T07:09:22.755Z,34.28
2018-07-04T07:10:22.790Z,33.29
2018-07-04T07:11:22.830Z,33.29
2018-07-04T07:12:22.836Z,33.43
2018-07-04T07:13:22.889Z,32.45
2018-07-04T07:14:22.972Z,35.11
2018-07-04T07:15:22.930Z,37.32
2018-07-04T07:16:22.986Z,38.35
2018-07-04T07:17:22.986Z,38.75
2018-07-04T07:18:23.012Z,36.94
2018-07-04T07:19:23.056Z,35.63
2018-07-04T07:20:23.078Z,33.92
2018-07-04T07:21:23.098Z,32.28
2018-07-04T07:22:23.156Z,31.53
2018-07-04T07:23:23.169Z,30.10
2018-07-04T07:24:23.196Z,29.80
2018-07-04T07:25:23.235Z,29.90
2018-07-04T07:26:23.259Z,28.77
2018-07-04T07:27:23.287Z,28.19
2018-07-04T07:28:23.359Z,28.49
2018-07-04T07:29:23.342Z,29.89
2018-07-04T07:30:23.381Z,30.40
2018-07-04T07:31:23.414Z,31.16
2018-07-04T07:32:23.443Z,31.84
2018-07-04T07:33:23.472Z,33.90
2018-07-04T07:34:23.564Z,35.46
2018-07-04T07:35:23.530Z,34.99
2018-07-04T07:36:23.569Z,34.33
2018-07-04T07:37:23.592Z,32.46
2018-07-04T07:38:23.626Z,31.29
2018-07-04T07:39:23.653Z,31.44
2018-07-04T07:40:23.693Z,31.22
2018-07-04T07:41:23.735Z,30.02
2018-07-04T07:42:23.766Z,29.59
2018-07-04T07:43:23.806Z,31.47
2018-07-04T07:44:23.819Z,32.45
2018-07-04T07:45:23.860Z,31.97
2018-07-04T07:46:23.875Z,30.27
2018-07-04T07:47:23.934Z,29.34
2018-07-04T07:48:23.950Z,31.14
2018-07-04T07:49:23.976Z,32.60
2018-07-04T07:50:23.999Z,31.55
2018-07-04T07:51:24.034Z,29.85
2018-07-04T07:52:24.076Z,30.81
2018-07-04T07:53:24.104Z,31.07
2018-07-04T07:54:24.168Z,32.61
2018-07-04T07:55:24.169Z,33.22
2018-07-04T07:56:24.189Z,32.81
2018-07-04T07:57:24.215Z,32.43
2018-07-04T07:58:24.245Z,31.84
2018-07-04T07:59:24.294Z,33.28
2018-07-04T08:00:24.317Z,33.64
2018-07-04T08:01:24.343Z,33.26
2018-07-04T08:02:24.379Z,33.48
2018-07-04T08:03:24.442Z,30.93
2018-07-04T08:04:24.431Z,32.12
2018-07-04T08:05:24.455Z,33.64
2018-07-04T08:06:24.486Z,35.30
2018-07-04T08:07:24.517Z,34.99
2018-07-04T08:08:24.547Z,34.23
2018-07-04T08:09:24.607Z,34.09
2018-07-04T08:10:24.612Z,34.31
2018-07-04T08:11:24.637Z,33.45
2018-07-04T08:12:24.684Z,33.43
2018-07-04T08:13:24.697Z,34.01
2018-07-04T08:14:24.734Z,32.66
2018-07-04T08:15:24.755Z,32.58
2018-07-04T08:16:24.788Z,32.27
2018-07-04T08:17:24.814Z,33.33
2018-07-04T08:18:24.841Z,33.17
2018-07-04T08:19:24.867Z,32.20
2018-07-04T08:20:24.904Z,32.01
2018-07-04T08:21:24.931Z,32.34
2018-07-04T08:22:24.969Z,29.64
2018-07-04T08:23:25.001Z,27.94
2018-07-04T08:24:25.032Z,27.98
2018-07-04T08:25:25.055Z,29.88
2018-07-04T08:26:25.152Z,30.83
2018-07-04T08:27:25.107Z,31.70
2018-07-04T08:28:25.173Z,32.17
2018-07-04T08:29:25.171Z,32.66
2018-07-04T08:30:25.188Z,32.39
2018-07-04T08:31:25.237Z,31.35
2018-07-04T08:32:25.244Z,30.99
2018-07-04T08:33:25.352Z,29.60
2018-07-04T08:34:25.300Z,28.40
2018-07-04T08:35:25.337Z,27.26
2018-07-04T08:36:25.355Z,27.42
2018-07-04T08:37:25.397Z,29.39
2018-07-04T08:38:25.412Z,31.24
2018-07-04T08:39:25.464Z,30.11
2018-07-04T08:40:25.480Z,28.39
2018-07-04T08:41:25.505Z,29.60
2018-07-04T08:42:25.524Z,30.08
2018-07-04T08:43:25.553Z,28.83
2018-07-04T08:44:25.582Z,28.75
2018-07-04T08:45:25.613Z,29.34
2018-07-04T08:46:25.632Z,28.47
2018-07-04T08:47:25.661Z,29.31
2018-07-04T08:48:25.681Z,29.22
2018-07-04T08:49:25.710Z,29.50
2018-07-04T08:50:25.742Z,29.60
2018-07-04T08:51:25.783Z,29.69
2018-07-04T08:52:25.792Z,29.59
2018-07-04T08:53:25.817Z,30.00
2018-07-04T08:54:25.846Z,29.21
2018-07-04T08:55:25.873Z,30.01
2018-07-04T08:56:25.894Z,31.59
2018-07-04T08:57:25.943Z,33.50
2018-07-04T08:58:25.980Z,34.77
2018-07-04T08:59:25.974Z,34.18
2018-07-04T09:00:26.004Z,33.72
2018-07-04T09:01:26.032Z,33.25
2018-07-04T09:02:26.063Z,33.22
2018-07-04T09:03:26.094Z,33.51
2018-07-04T09:04:26.129Z,34.09
2018-07-04T09:05:26.144Z,32.29
2018-07-04T09:06:26.160Z,32.40
2018-07-04T09:07:26.191Z,33.33
2018-07-04T09:08:26.212Z,34.36
2018-07-04T09:09:26.250Z,34.94
2018-07-04T09:10:26.264Z,34.26
2018-07-04T09:11:26.326Z,34.29
2018-07-04T09:12:26.327Z,34.75
2018-07-04T09:13:26.337Z,33.30
2018-07-04T09:14:26.367Z,32.71
2018-07-04T09:15:26.390Z,31.64
2018-07-04T09:16:26.421Z,31.35
2018-07-04T09:17:26.450Z,32.14
2018-07-04T09:18:26.473Z,32.03
2018-07-04T09:19:26.500Z,31.75
2018-07-04T09:20:26.527Z,31.26
2018-07-04T09:21:26.551Z,30.19
2018-07-04T09:22:26.579Z,29.70
2018-07-04T09:23:26.604Z,28.33
2018-07-04T09:24:26.673Z,26.09
2018-07-04T09:25:26.659Z,26.50
2018-07-04T09:26:26.687Z,25.63
2018-07-04T09:27:26.724Z,24.46
2018-07-04T09:28:26.734Z,24.93
2018-07-04T09:29:26.763Z,25.32
2018-07-04T09:30:26.783Z,26.87
2018-07-04T09:31:26.809Z,26.59
2018-07-04T09:32:26.835Z,27.77
2018-07-04T09:33:26.864Z,27.66
2018-07-04T09:34:26.913Z,27.17
2018-07-04T09:35:26.927Z,26.79
2018-07-04T09:36:26.944Z,29.44
2018-07-04T09:37:26.974Z,28.83
2018-07-04T09:38:27.031Z,29.70
2018-07-04T09:39:27.030Z,30.48
2018-07-04T09:40:27.049Z,29.71
2018-07-04T09:41:27.077Z,29.14
2018-07-04T09:42:27.102Z,29.94
2018-07-04T09:43:27.140Z,29.55
2018-07-04T09:44:27.150Z,28.47
2018-07-04T09:45:27.200Z,28.47
2018-07-04T09:46:27.203Z,30.43
2018-07-04T09:47:27.239Z,30.90
2018-07-04T09:48:27.253Z,29.84
2018-07-04T09:49:27.290Z,29.55
2018-07-04T09:50:27.311Z,28.03
2018-07-04T09:51:27.338Z,26.10
2018-07-04T09:52:27.365Z,26.27
2018-07-04T09:53:27.398Z,27.44
2018-07-04T09:54:27.412Z,26.46
2018-07-04T09:55:27.447Z,26.27
2018-07-04T09:56:27.466Z,26.45
2018-07-04T09:57:27.497Z,25.38
2018-07-04T09:58:27.522Z,25.29
2018-07-04T09:59:27.550Z,24.43
2018-07-04T10:00:27.587Z,23.77
2018-07-04T10:01:27.599Z,23.39
2018-07-04T10:02:27.625Z,23.28
2018-07-04T10:03:27.655Z,23.44
2018-07-04T10:04:27.692Z,25.78
2018-07-04T10:05:27.707Z,25.67
2018-07-04T10:06:27.770Z,25.78
2018-07-04T10:07:27.762Z,25.60
2018-07-04T10:08:27.795Z,25.03
2018-07-04T10:09:27.827Z,24.17
2018-07-04T10:10:27.849Z,23.50
2018-07-04T10:11:27.872Z,24.06
2018-07-04T10:12:27.900Z,23.40
2018-07-04T10:13:27.925Z,22.92
2018-07-04T10:14:27.955Z,23.30
2018-07-04T10:15:28.005Z,23.31
2018-07-04T10:16:28.020Z,23.40
2018-07-04T10:17:28.043Z,24.47
2018-07-04T10:18:28.069Z,25.13
2018-07-04T10:19:28.094Z,24.71
2018-07-04T10:20:28.124Z,25.60
2018-07-04T10:21:28.146Z,24.80
2018-07-04T10:22:28.175Z,25.11
2018-07-04T10:23:28.203Z,25.49
2018-07-04T10:24:28.236Z,24.80
2018-07-04T10:25:28.259Z,25.10
2018-07-04T10:26:28.280Z,24.24
2018-07-04T10:27:28.313Z,24.24
2018-07-04T10:28:28.344Z,24.21
2018-07-04T10:29:28.363Z,24.21
2018-07-04T10:30:28.388Z,24.51
2018-07-04T10:31:28.441Z,24.42
2018-07-04T10:32:28.452Z,24.82
2018-07-04T10:33:28.472Z,24.57
2018-07-04T10:34:28.589Z,23.28
2018-07-04T10:35:28.528Z,23.16
2018-07-04T10:36:28.569Z,23.84
2018-07-04T10:37:28.577Z,23.47
2018-07-04T10:38:28.621Z,23.10
2018-07-04T10:39:28.631Z,22.88
2018-07-04T10:40:28.669Z,24.14
2018-07-04T10:41:28.690Z,23.46
2018-07-04T10:42:28.717Z,23.38
2018-07-04T10:43:28.743Z,23.67
2018-07-04T10:44:28.770Z,23.10
2018-07-04T10:45:28.795Z,22.33
2018-07-04T10:46:28.834Z,21.75
2018-07-04T10:47:28.852Z,21.84
2018-07-04T10:48:28.880Z,21.54
2018-07-04T10:49:28.976Z,22.02
2018-07-04T10:50:28.939Z,23.09
2018-07-04T10:51:28.962Z,23.84
2018-07-04T10:52:28.994Z,24.73
2018-07-04T10:53:29.014Z,24.36
2018-07-04T10:54:29.048Z,24.35
2018-07-04T10:55:29.091Z,24.43
2018-07-04T10:56:29.113Z,24.53
2018-07-04T10:57:29.146Z,23.67
2018-07-04T10:58:29.215Z,23.36
2018-07-04T10:59:29.179Z,23.28
2018-07-04T11:00:29.211Z,23.47
2018-07-04T11:01:29.229Z,23.39
2018-07-04T11:02:29.265Z,23.31
2018-07-04T11:03:29.282Z,22.41
2018-07-04T11:04:29.360Z,23.10
2018-07-04T11:05:29.340Z,22.82
2018-07-04T11:06:29.365Z,22.03
2018-07-04T11:07:29.393Z,21.92
2018-07-04T11:08:29.439Z,21.72
2018-07-04T11:09:29.469Z,22.88
2018-07-04T11:10:29.474Z,23.45
2018-07-04T11:11:29.523Z,24.42
2018-07-04T11:12:29.543Z,23.33
2018-07-04T11:13:29.556Z,23.93
2018-07-04T11:14:29.582Z,23.35
2018-07-04T11:15:29.619Z,23.08
2018-07-04T11:16:29.650Z,22.50
2018-07-04T11:17:29.665Z,23.18
2018-07-04T11:18:29.693Z,24.35
2018-07-04T11:19:29.717Z,24.43
2018-07-04T11:20:29.748Z,24.15
2018-07-04T11:21:29.776Z,24.74
2018-07-04T11:22:29.851Z,26.10
2018-07-04T11:23:29.833Z,26.11
2018-07-04T11:24:29.860Z,25.44
2018-07-04T11:25:29.885Z,24.75
2018-07-04T11:26:29.911Z,24.35
2018-07-04T11:27:29.948Z,23.96
2018-07-04T11:28:30.014Z,23.85
2018-07-04T11:29:29.999Z,24.46
2018-07-04T11:30:30.030Z,24.73
2018-07-04T11:31:30.056Z,25.03
2018-07-04T11:32:30.074Z,24.96
2018-07-04T11:33:30.108Z,24.08
2018-07-04T11:34:30.126Z,23.51
2018-07-04T11:35:30.156Z,23.13
2018-07-04T11:36:30.181Z,23.13
2018-07-04T11:37:30.213Z,23.40
2018-07-04T11:38:30.403Z,22.99
2018-07-04T11:39:30.267Z,24.57
2018-07-04T11:40:30.299Z,24.18
2018-07-04T11:41:30.321Z,24.10
2018-07-04T11:42:30.358Z,24.98
2018-07-04T11:43:30.378Z,25.52
2018-07-04T11:44:30.418Z,24.64
2018-07-04T11:45:30.431Z,23.28
2018-07-04T11:46:30.469Z,24.85
2018-07-04T11:47:30.488Z,24.47
2018-07-04T11:48:30.522Z,24.05
2018-07-04T11:49:30.585Z,24.64
2018-07-04T11:50:30.567Z,24.44
2018-07-04T11:51:30.621Z,24.54
2018-07-04T11:52:30.625Z,24.05
2018-07-04T11:53:30.650Z,24.62
2018-07-04T11:54:30.700Z,23.94
2018-07-04T11:55:30.712Z,24.62
2018-07-04T11:56:30.759Z,25.38
2018-07-04T11:57:30.761Z,24.70
2018-07-04T11:58:30.795Z,24.53
2018-07-04T11:59:30.815Z,24.35
2018-07-04T12:00:30.856Z,23.35
2018-07-04T12:01:30.880Z,24.22
2018-07-04T12:02:30.901Z,25.32
2018-07-04T12:03:30.929Z,24.16
2018-07-04T12:04:30.957Z,23.57
2018-07-04T12:05:31.031Z,23.38
2018-07-04T12:06:31.014Z,23.29
2018-07-04T12:07:31.039Z,23.38
2018-07-04T12:08:31.066Z,23.47
2018-07-04T12:09:31.092Z,22.89
2018-07-04T12:10:31.129Z,23.66
2018-07-04T12:11:31.164Z,24.33
2018-07-04T12:12:31.178Z,23.94
2018-07-04T12:13:31.200Z,24.14
2018-07-04T12:14:31.235Z,23.66
2018-07-04T12:15:31.261Z,23.86
2018-07-04T12:16:31.287Z,22.78
2018-07-04T12:17:31.308Z,22.99
2018-07-04T12:18:31.336Z,22.99
2018-07-04T12:19:31.373Z,22.61
2018-07-04T12:20:31.412Z,22.13
2018-07-04T12:21:31.431Z,22.62
2018-07-04T12:22:31.448Z,22.61
2018-07-04T12:23:31.479Z,22.81
2018-07-04T12:24:31.519Z,22.91
2018-07-04T12:25:31.532Z,22.92
2018-07-04T12:26:31.586Z,22.13
2018-07-04T12:27:31.603Z,21.83
2018-07-04T12:28:31.608Z,22.03
2018-07-04T12:29:31.636Z,22.23
2018-07-04T12:30:31.668Z,21.94
2018-07-04T12:31:31.697Z,21.84
2018-07-04T12:32:31.725Z,21.73
2018-07-04T12:33:31.741Z,21.64
2018-07-04T12:34:31.777Z,22.31
2018-07-04T12:35:31.811Z,22.92
2018-07-04T12:36:31.832Z,22.82
2018-07-04T12:37:31.897Z,22.53
2018-07-04T12:38:31.882Z,21.84
2018-07-04T12:39:31.905Z,22.92
2018-07-04T12:40:32.015Z,22.02
2018-07-04T12:41:31.973Z,22.33
2018-07-04T12:42:31.990Z,21.76
2018-07-04T12:43:32.102Z,21.36
2018-07-04T12:44:32.054Z,21.56
2018-07-04T12:45:39.394Z,21.83
2018-07-04T12:46:32.105Z,22.98
2018-07-04T12:47:32.125Z,22.99
2018-07-04T12:48:32.158Z,23.39
2018-07-04T12:49:32.178Z,23.40
2018-07-04T12:50:32.234Z,22.14
2018-07-04T12:51:32.232Z,21.36
2018-07-04T12:52:32.276Z,21.84